KFZY

Oswego County Airport

Fulton, New York, USA
METAR KFZY 201554Z AUTO VRB04KT 10SM CLR 24/14 A3015 RMK AO2 SLP209 T02390139
Observed Flight Rules
Aug-20 @ 15:54 UTC (30 minutes ago) Visual Flight Rules
Wind Visibility Clouds
Variable at 4 knots 10 miles
  • Clear skies
Temperatures Readings
Current 24°C / 75°F
Dewpoint 14°C / 57°F
Humidity 54%
Altimeter 30.15" Hg
Pressure 1020.9 hPa
Elevation 138
METAR KFZY 201554Z AUTO VRB04KT 10SM CLR 24/14 A3015 RMK AO2 SLP209 T02390139
Observed Flight Rules
Aug-20 @ 15:54 UTC
(30 minutes ago)
VFR
Wind Visibility
Variable at 4 knots 10 miles
Clouds
  • Clear skies
Temperature Dewpoint
24°C / 75°F 14°C / 57°F
Humidity Altimeter Pressure
54% 30.15" Hg 1020.9 hPa